sensor_id;sensor_type;location;lat;lon;timestamp;P1;durP1;ratioP1;P2;durP2;ratioP2
76593;SDS011;65482;50.240;14.302;2023-04-23T00:01:16;17.70;;;9.90;;
76593;SDS011;65482;50.240;14.302;2023-04-23T00:03:43;19.23;;;10.55;;
76593;SDS011;65482;50.240;14.302;2023-04-23T00:06:10;15.07;;;10.15;;
76593;SDS011;65482;50.240;14.302;2023-04-23T00:08:39;18.73;;;9.80;;
76593;SDS011;65482;50.240;14.302;2023-04-23T00:11:06;20.17;;;10.35;;
76593;SDS011;65482;50.240;14.302;2023-04-23T00:13:32;17.10;;;9.70;;
76593;SDS011;65482;50.240;14.302;2023-04-23T00:15:58;15.30;;;10.13;;
76593;SDS011;65482;50.240;14.302;2023-04-23T00:18:24;16.38;;;9.95;;
76593;SDS011;65482;50.240;14.302;2023-04-23T00:20:50;15.18;;;9.70;;
76593;SDS011;65482;50.240;14.302;2023-04-23T00:23:16;18.20;;;10.00;;
76593;SDS011;65482;50.240;14.302;2023-04-23T00:25:42;18.55;;;10.25;;
76593;SDS011;65482;50.240;14.302;2023-04-23T00:28:08;14.48;;;9.68;;
76593;SDS011;65482;50.240;14.302;2023-04-23T00:30:33;19.90;;;10.90;;
76593;SDS011;65482;50.240;14.302;2023-04-23T00:32:59;20.48;;;11.30;;
76593;SDS011;65482;50.240;14.302;2023-04-23T00:35:25;17.52;;;10.10;;
76593;SDS011;65482;50.240;14.302;2023-04-23T00:37:51;22.60;;;10.27;;
76593;SDS011;65482;50.240;14.302;2023-04-23T00:40:16;20.88;;;10.27;;
76593;SDS011;65482;50.240;14.302;2023-04-23T00:42:42;17.40;;;10.18;;
76593;SDS011;65482;50.240;14.302;2023-04-23T00:45:09;17.52;;;10.00;;
76593;SDS011;65482;50.240;14.302;2023-04-23T00:47:35;15.95;;;10.55;;
76593;SDS011;65482;50.240;14.302;2023-04-23T00:50:01;16.13;;;9.93;;
76593;SDS011;65482;50.240;14.302;2023-04-23T00:52:28;14.32;;;10.13;;
76593;SDS011;65482;50.240;14.302;2023-04-23T00:54:54;18.33;;;10.70;;
76593;SDS011;65482;50.240;14.302;2023-04-23T00:57:20;15.57;;;10.00;;
76593;SDS011;65482;50.240;14.302;2023-04-23T00:59:47;19.80;;;9.98;;
76593;SDS011;65482;50.240;14.302;2023-04-23T01:02:13;16.08;;;9.52;;
76593;SDS011;65482;50.240;14.302;2023-04-23T01:04:39;14.73;;;9.48;;
76593;SDS011;65482;50.240;14.302;2023-04-23T01:07:07;15.27;;;9.98;;
76593;SDS011;65482;50.240;14.302;2023-04-23T01:09:33;13.38;;;10.02;;
76593;SDS011;65482;50.240;14.302;2023-04-23T01:11:59;18.45;;;10.38;;
76593;SDS011;65482;50.240;14.302;2023-04-23T01:14:26;17.33;;;9.52;;
76593;SDS011;65482;50.240;14.302;2023-04-23T01:16:52;13.15;;;9.32;;
76593;SDS011;65482;50.240;14.302;2023-04-23T01:19:18;14.25;;;9.77;;
76593;SDS011;65482;50.240;14.302;2023-04-23T01:21:44;15.80;;;9.60;;
76593;SDS011;65482;50.240;14.302;2023-04-23T01:24:10;16.67;;;9.32;;
76593;SDS011;65482;50.240;14.302;2023-04-23T01:26:37;17.00;;;11.07;;
76593;SDS011;65482;50.240;14.302;2023-04-23T01:29:03;14.98;;;9.75;;
76593;SDS011;65482;50.240;14.302;2023-04-23T01:31:29;22.75;;;10.60;;
76593;SDS011;65482;50.240;14.302;2023-04-23T01:33:55;18.02;;;9.73;;
76593;SDS011;65482;50.240;14.302;2023-04-23T01:36:22;15.63;;;9.95;;
76593;SDS011;65482;50.240;14.302;2023-04-23T01:38:48;19.30;;;9.98;;
76593;SDS011;65482;50.240;14.302;2023-04-23T01:41:14;15.73;;;9.40;;
76593;SDS011;65482;50.240;14.302;2023-04-23T01:43:42;14.52;;;9.85;;
76593;SDS011;65482;50.240;14.302;2023-04-23T01:46:08;16.63;;;10.18;;
76593;SDS011;65482;50.240;14.302;2023-04-23T01:48:35;18.13;;;9.88;;
76593;SDS011;65482;50.240;14.302;2023-04-23T01:51:01;13.55;;;10.13;;
76593;SDS011;65482;50.240;14.302;2023-04-23T01:53:27;16.80;;;9.85;;
76593;SDS011;65482;50.240;14.302;2023-04-23T01:55:53;13.95;;;9.75;;
76593;SDS011;65482;50.240;14.302;2023-04-23T01:58:20;18.02;;;10.10;;
76593;SDS011;65482;50.240;14.302;2023-04-23T02:00:48;16.33;;;10.52;;
76593;SDS011;65482;50.240;14.302;2023-04-23T02:03:14;27.23;;;13.30;;
76593;SDS011;65482;50.240;14.302;2023-04-23T02:05:40;24.20;;;13.77;;
76593;SDS011;65482;50.240;14.302;2023-04-23T02:08:06;21.23;;;12.38;;
76593;SDS011;65482;50.240;14.302;2023-04-23T02:10:32;21.15;;;11.13;;
76593;SDS011;65482;50.240;14.302;2023-04-23T02:12:58;22.75;;;12.32;;
76593;SDS011;65482;50.240;14.302;2023-04-23T02:15:24;18.25;;;11.43;;
76593;SDS011;65482;50.240;14.302;2023-04-23T02:17:49;17.55;;;11.27;;
76593;SDS011;65482;50.240;14.302;2023-04-23T02:20:16;19.40;;;10.82;;
76593;SDS011;65482;50.240;14.302;2023-04-23T02:22:42;17.35;;;11.10;;
76593;SDS011;65482;50.240;14.302;2023-04-23T02:25:08;16.25;;;10.48;;
76593;SDS011;65482;50.240;14.302;2023-04-23T02:27:34;17.13;;;10.27;;
76593;SDS011;65482;50.240;14.302;2023-04-23T02:30:00;18.15;;;11.00;;
76593;SDS011;65482;50.240;14.302;2023-04-23T02:32:26;19.20;;;10.30;;
76593;SDS011;65482;50.240;14.302;2023-04-23T02:34:52;14.27;;;10.15;;
76593;SDS011;65482;50.240;14.302;2023-04-23T02:37:17;16.17;;;10.32;;
76593;SDS011;65482;50.240;14.302;2023-04-23T02:39:43;15.40;;;10.88;;
76593;SDS011;65482;50.240;14.302;2023-04-23T02:42:09;19.75;;;10.57;;
76593;SDS011;65482;50.240;14.302;2023-04-23T02:44:36;13.98;;;9.60;;
76593;SDS011;65482;50.240;14.302;2023-04-23T02:47:01;15.70;;;9.95;;
76593;SDS011;65482;50.240;14.302;2023-04-23T02:49:27;22.15;;;10.85;;
76593;SDS011;65482;50.240;14.302;2023-04-23T02:51:52;22.05;;;10.23;;
76593;SDS011;65482;50.240;14.302;2023-04-23T02:54:18;15.52;;;10.77;;
76593;SDS011;65482;50.240;14.302;2023-04-23T02:56:44;13.90;;;9.43;;
76593;SDS011;65482;50.240;14.302;2023-04-23T02:59:11;14.70;;;10.27;;
76593;SDS011;65482;50.240;14.302;2023-04-23T03:01:36;15.88;;;9.82;;
76593;SDS011;65482;50.240;14.302;2023-04-23T03:04:02;16.55;;;10.40;;
76593;SDS011;65482;50.240;14.302;2023-04-23T03:06:28;14.20;;;10.27;;
76593;SDS011;65482;50.240;14.302;2023-04-23T03:08:56;25.33;;;11.95;;
76593;SDS011;65482;50.240;14.302;2023-04-23T03:11:21;15.25;;;10.05;;
76593;SDS011;65482;50.240;14.302;2023-04-23T03:13:47;15.20;;;10.25;;
76593;SDS011;65482;50.240;14.302;2023-04-23T03:16:13;17.88;;;10.73;;
76593;SDS011;65482;50.240;14.302;2023-04-23T03:18:39;18.90;;;10.63;;
76593;SDS011;65482;50.240;14.302;2023-04-23T03:21:05;14.02;;;10.63;;
76593;SDS011;65482;50.240;14.302;2023-04-23T03:23:31;19.10;;;10.27;;
76593;SDS011;65482;50.240;14.302;2023-04-23T03:25:56;13.95;;;10.43;;
76593;SDS011;65482;50.240;14.302;2023-04-23T03:28:22;14.20;;;9.45;;
76593;SDS011;65482;50.240;14.302;2023-04-23T03:30:48;13.02;;;9.65;;
76593;SDS011;65482;50.240;14.302;2023-04-23T03:33:14;15.75;;;9.95;;
76593;SDS011;65482;50.240;14.302;2023-04-23T03:35:40;13.38;;;10.18;;
76593;SDS011;65482;50.240;14.302;2023-04-23T03:38:06;18.13;;;10.85;;
76593;SDS011;65482;50.240;14.302;2023-04-23T03:40:31;15.65;;;10.30;;
76593;SDS011;65482;50.240;14.302;2023-04-23T03:42:57;18.80;;;10.98;;
76593;SDS011;65482;50.240;14.302;2023-04-23T03:45:23;18.30;;;10.80;;
76593;SDS011;65482;50.240;14.302;2023-04-23T03:47:49;17.50;;;10.32;;
76593;SDS011;65482;50.240;14.302;2023-04-23T03:50:14;25.38;;;11.23;;
76593;SDS011;65482;50.240;14.302;2023-04-23T03:52:41;18.58;;;11.32;;
76593;SDS011;65482;50.240;14.302;2023-04-23T03:55:07;18.80;;;11.13;;
76593;SDS011;65482;50.240;14.302;2023-04-23T03:57:34;20.27;;;12.15;;
76593;SDS011;65482;50.240;14.302;2023-04-23T04:00:01;20.65;;;11.43;;
76593;SDS011;65482;50.240;14.302;2023-04-23T04:02:27;19.55;;;10.93;;
76593;SDS011;65482;50.240;14.302;2023-04-23T04:04:53;15.68;;;11.10;;
76593;SDS011;65482;50.240;14.302;2023-04-23T04:07:20;21.80;;;11.82;;
76593;SDS011;65482;50.240;14.302;2023-04-23T04:09:46;19.48;;;11.63;;
76593;SDS011;65482;50.240;14.302;2023-04-23T04:12:14;18.50;;;11.45;;
76593;SDS011;65482;50.240;14.302;2023-04-23T04:14:40;18.02;;;10.77;;
76593;SDS011;65482;50.240;14.302;2023-04-23T04:17:07;20.45;;;11.40;;
76593;SDS011;65482;50.240;14.302;2023-04-23T04:19:33;18.20;;;11.48;;
76593;SDS011;65482;50.240;14.302;2023-04-23T04:21:59;18.73;;;11.68;;
76593;SDS011;65482;50.240;14.302;2023-04-23T04:24:27;18.75;;;11.07;;
76593;SDS011;65482;50.240;14.302;2023-04-23T04:26:54;18.98;;;11.95;;
76593;SDS011;65482;50.240;14.302;2023-04-23T04:29:19;18.27;;;11.15;;
76593;SDS011;65482;50.240;14.302;2023-04-23T04:31:46;20.52;;;11.55;;
76593;SDS011;65482;50.240;14.302;2023-04-23T04:34:12;17.15;;;11.13;;
76593;SDS011;65482;50.240;14.302;2023-04-23T04:36:39;19.20;;;11.82;;
76593;SDS011;65482;50.240;14.302;2023-04-23T04:39:06;17.20;;;10.82;;
76593;SDS011;65482;50.240;14.302;2023-04-23T04:41:32;20.60;;;11.35;;
76593;SDS011;65482;50.240;14.302;2023-04-23T04:43:58;19.73;;;11.88;;
76593;SDS011;65482;50.240;14.302;2023-04-23T04:46:24;17.23;;;11.15;;
76593;SDS011;65482;50.240;14.302;2023-04-23T04:48:53;18.05;;;11.82;;
76593;SDS011;65482;50.240;14.302;2023-04-23T04:51:19;20.02;;;11.52;;
76593;SDS011;65482;50.240;14.302;2023-04-23T04:53:45;17.83;;;11.20;;
76593;SDS011;65482;50.240;14.302;2023-04-23T04:56:11;14.25;;;11.07;;
76593;SDS011;65482;50.240;14.302;2023-04-23T04:58:37;17.25;;;11.40;;
76593;SDS011;65482;50.240;14.302;2023-04-23T05:01:03;15.95;;;10.38;;
76593;SDS011;65482;50.240;14.302;2023-04-23T05:03:30;15.30;;;11.02;;
76593;SDS011;65482;50.240;14.302;2023-04-23T05:05:56;17.85;;;10.73;;
76593;SDS011;65482;50.240;14.302;2023-04-23T05:08:24;17.20;;;11.25;;
76593;SDS011;65482;50.240;14.302;2023-04-23T05:10:50;15.32;;;10.63;;
76593;SDS011;65482;50.240;14.302;2023-04-23T05:13:18;15.13;;;10.35;;
76593;SDS011;65482;50.240;14.302;2023-04-23T05:15:46;15.23;;;11.63;;
76593;SDS011;65482;50.240;14.302;2023-04-23T05:18:13;16.58;;;11.90;;
76593;SDS011;65482;50.240;14.302;2023-04-23T05:20:41;15.63;;;11.25;;
76593;SDS011;65482;50.240;14.302;2023-04-23T05:23:07;16.02;;;10.55;;
76593;SDS011;65482;50.240;14.302;2023-04-23T05:25:32;19.83;;;12.23;;
76593;SDS011;65482;50.240;14.302;2023-04-23T05:27:59;17.33;;;10.48;;
76593;SDS011;65482;50.240;14.302;2023-04-23T05:30:25;21.15;;;12.23;;
76593;SDS011;65482;50.240;14.302;2023-04-23T05:32:51;17.85;;;11.80;;
76593;SDS011;65482;50.240;14.302;2023-04-23T05:35:17;17.83;;;11.88;;
76593;SDS011;65482;50.240;14.302;2023-04-23T05:37:43;17.30;;;11.50;;
76593;SDS011;65482;50.240;14.302;2023-04-23T05:40:09;19.63;;;12.60;;
76593;SDS011;65482;50.240;14.302;2023-04-23T05:42:34;17.30;;;11.02;;
76593;SDS011;65482;50.240;14.302;2023-04-23T05:45:01;19.95;;;11.10;;
76593;SDS011;65482;50.240;14.302;2023-04-23T05:47:28;17.08;;;12.02;;
76593;SDS011;65482;50.240;14.302;2023-04-23T05:49:54;16.95;;;11.52;;
76593;SDS011;65482;50.240;14.302;2023-04-23T05:52:21;19.42;;;12.80;;
76593;SDS011;65482;50.240;14.302;2023-04-23T05:54:47;18.02;;;12.68;;
76593;SDS011;65482;50.240;14.302;2023-04-23T05:57:13;20.92;;;13.43;;
76593;SDS011;65482;50.240;14.302;2023-04-23T05:59:39;20.65;;;13.15;;
76593;SDS011;65482;50.240;14.302;2023-04-23T06:02:04;18.17;;;13.20;;
76593;SDS011;65482;50.240;14.302;2023-04-23T06:04:31;19.30;;;12.52;;
76593;SDS011;65482;50.240;14.302;2023-04-23T06:06:57;19.55;;;12.98;;
76593;SDS011;65482;50.240;14.302;2023-04-23T06:09:23;17.60;;;12.57;;
76593;SDS011;65482;50.240;14.302;2023-04-23T06:11:48;18.00;;;12.65;;
76593;SDS011;65482;50.240;14.302;2023-04-23T06:14:16;18.33;;;12.48;;
76593;SDS011;65482;50.240;14.302;2023-04-23T06:16:42;18.30;;;12.60;;
76593;SDS011;65482;50.240;14.302;2023-04-23T06:19:08;17.45;;;11.60;;
76593;SDS011;65482;50.240;14.302;2023-04-23T06:21:33;16.25;;;11.48;;
76593;SDS011;65482;50.240;14.302;2023-04-23T06:23:59;16.90;;;11.00;;
76593;SDS011;65482;50.240;14.302;2023-04-23T06:26:24;16.60;;;11.07;;
76593;SDS011;65482;50.240;14.302;2023-04-23T06:28:50;16.88;;;10.85;;
76593;SDS011;65482;50.240;14.302;2023-04-23T06:31:16;15.45;;;10.63;;
76593;SDS011;65482;50.240;14.302;2023-04-23T06:33:42;15.43;;;11.45;;
76593;SDS011;65482;50.240;14.302;2023-04-23T06:36:07;15.20;;;10.90;;
76593;SDS011;65482;50.240;14.302;2023-04-23T06:38:36;16.20;;;10.80;;
76593;SDS011;65482;50.240;14.302;2023-04-23T06:41:02;17.60;;;11.02;;
76593;SDS011;65482;50.240;14.302;2023-04-23T06:43:29;13.52;;;10.57;;
76593;SDS011;65482;50.240;14.302;2023-04-23T06:45:55;19.00;;;11.70;;
76593;SDS011;65482;50.240;14.302;2023-04-23T06:48:21;18.45;;;12.25;;
76593;SDS011;65482;50.240;14.302;2023-04-23T06:50:47;18.70;;;12.25;;
76593;SDS011;65482;50.240;14.302;2023-04-23T06:53:13;17.75;;;11.48;;
76593;SDS011;65482;50.240;14.302;2023-04-23T06:55:39;17.85;;;11.43;;
76593;SDS011;65482;50.240;14.302;2023-04-23T06:58:05;16.27;;;10.63;;
76593;SDS011;65482;50.240;14.302;2023-04-23T07:00:34;17.45;;;11.45;;
76593;SDS011;65482;50.240;14.302;2023-04-23T07:03:02;18.17;;;11.20;;
76593;SDS011;65482;50.240;14.302;2023-04-23T07:05:28;24.10;;;12.93;;
76593;SDS011;65482;50.240;14.302;2023-04-23T07:07:54;22.98;;;12.77;;
76593;SDS011;65482;50.240;14.302;2023-04-23T07:10:19;20.40;;;12.30;;
76593;SDS011;65482;50.240;14.302;2023-04-23T07:12:45;20.67;;;11.40;;
76593;SDS011;65482;50.240;14.302;2023-04-23T07:15:12;19.05;;;11.95;;
76593;SDS011;65482;50.240;14.302;2023-04-23T07:17:38;21.85;;;12.35;;
76593;SDS011;65482;50.240;14.302;2023-04-23T07:20:04;19.13;;;11.85;;
76593;SDS011;65482;50.240;14.302;2023-04-23T07:22:31;21.63;;;12.25;;
76593;SDS011;65482;50.240;14.302;2023-04-23T07:24:57;19.65;;;12.18;;
76593;SDS011;65482;50.240;14.302;2023-04-23T07:27:24;17.83;;;11.65;;
76593;SDS011;65482;50.240;14.302;2023-04-23T07:29:49;17.92;;;12.05;;
76593;SDS011;65482;50.240;14.302;2023-04-23T07:32:16;17.42;;;11.93;;
76593;SDS011;65482;50.240;14.302;2023-04-23T07:34:41;16.08;;;12.00;;
76593;SDS011;65482;50.240;14.302;2023-04-23T07:37:08;17.77;;;11.23;;
76593;SDS011;65482;50.240;14.302;2023-04-23T07:39:33;16.85;;;11.90;;
76593;SDS011;65482;50.240;14.302;2023-04-23T07:42:00;15.45;;;11.15;;
76593;SDS011;65482;50.240;14.302;2023-04-23T07:44:28;18.27;;;11.20;;
76593;SDS011;65482;50.240;14.302;2023-04-23T07:46:55;17.23;;;11.95;;
76593;SDS011;65482;50.240;14.302;2023-04-23T07:49:21;16.23;;;11.57;;
76593;SDS011;65482;50.240;14.302;2023-04-23T07:51:47;17.30;;;11.55;;
76593;SDS011;65482;50.240;14.302;2023-04-23T07:54:13;18.92;;;12.52;;
76593;SDS011;65482;50.240;14.302;2023-04-23T07:56:39;16.88;;;11.18;;
76593;SDS011;65482;50.240;14.302;2023-04-23T07:59:04;16.73;;;11.63;;
76593;SDS011;65482;50.240;14.302;2023-04-23T08:01:31;17.42;;;12.02;;
76593;SDS011;65482;50.240;14.302;2023-04-23T08:03:57;17.15;;;11.10;;
76593;SDS011;65482;50.240;14.302;2023-04-23T08:06:25;15.20;;;11.40;;
76593;SDS011;65482;50.240;14.302;2023-04-23T08:08:51;19.83;;;12.25;;
76593;SDS011;65482;50.240;14.302;2023-04-23T08:11:20;17.50;;;11.15;;
76593;SDS011;65482;50.240;14.302;2023-04-23T08:13:46;17.65;;;11.05;;
76593;SDS011;65482;50.240;14.302;2023-04-23T08:16:12;18.33;;;12.23;;
76593;SDS011;65482;50.240;14.302;2023-04-23T08:18:37;16.80;;;11.35;;
76593;SDS011;65482;50.240;14.302;2023-04-23T08:21:04;13.65;;;10.73;;
76593;SDS011;65482;50.240;14.302;2023-04-23T08:23:30;17.15;;;10.82;;
76593;SDS011;65482;50.240;14.302;2023-04-23T08:25:55;18.35;;;11.95;;
76593;SDS011;65482;50.240;14.302;2023-04-23T08:28:21;16.30;;;11.40;;
76593;SDS011;65482;50.240;14.302;2023-04-23T08:30:47;18.05;;;10.93;;
76593;SDS011;65482;50.240;14.302;2023-04-23T08:33:13;15.35;;;10.93;;
76593;SDS011;65482;50.240;14.302;2023-04-23T08:35:39;18.73;;;11.30;;
76593;SDS011;65482;50.240;14.302;2023-04-23T08:38:05;19.90;;;10.57;;
76593;SDS011;65482;50.240;14.302;2023-04-23T08:40:31;19.48;;;10.52;;
76593;SDS011;65482;50.240;14.302;2023-04-23T08:43:09;15.50;;;10.85;;
76593;SDS011;65482;50.240;14.302;2023-04-23T08:45:46;16.30;;;10.60;;
76593;SDS011;65482;50.240;14.302;2023-04-23T08:48:13;19.05;;;10.90;;
76593;SDS011;65482;50.240;14.302;2023-04-23T08:50:41;6.38;;;4.45;;
76593;SDS011;65482;50.240;14.302;2023-04-23T08:53:08;5.88;;;3.00;;
76593;SDS011;65482;50.240;14.302;2023-04-23T08:55:34;3.28;;;2.30;;
76593;SDS011;65482;50.240;14.302;2023-04-23T08:58:00;3.40;;;2.60;;
76593;SDS011;65482;50.240;14.302;2023-04-23T09:00:30;7.55;;;2.83;;
76593;SDS011;65482;50.240;14.302;2023-04-23T09:02:57;5.90;;;2.50;;
76593;SDS011;65482;50.240;14.302;2023-04-23T09:05:26;5.97;;;2.30;;
76593;SDS011;65482;50.240;14.302;2023-04-23T09:07:52;2.50;;;2.00;;
76593;SDS011;65482;50.240;14.302;2023-04-23T09:10:19;3.70;;;2.03;;
76593;SDS011;65482;50.240;14.302;2023-04-23T09:12:44;3.95;;;2.20;;
76593;SDS011;65482;50.240;14.302;2023-04-23T09:15:12;4.65;;;2.28;;
76593;SDS011;65482;50.240;14.302;2023-04-23T09:17:44;4.50;;;2.63;;
76593;SDS011;65482;50.240;14.302;2023-04-23T09:20:13;3.67;;;2.50;;
76593;SDS011;65482;50.240;14.302;2023-04-23T09:22:40;5.60;;;2.80;;
76593;SDS011;65482;50.240;14.302;2023-04-23T09:25:08;8.73;;;2.92;;
76593;SDS011;65482;50.240;14.302;2023-04-23T09:27:34;3.53;;;2.60;;
76593;SDS011;65482;50.240;14.302;2023-04-23T09:30:04;4.45;;;2.97;;
76593;SDS011;65482;50.240;14.302;2023-04-23T09:32:35;3.17;;;2.88;;
76593;SDS011;65482;50.240;14.302;2023-04-23T09:35:08;4.97;;;2.88;;
76593;SDS011;65482;50.240;14.302;2023-04-23T09:37:35;3.85;;;2.88;;
76593;SDS011;65482;50.240;14.302;2023-04-23T09:40:03;4.93;;;2.55;;
76593;SDS011;65482;50.240;14.302;2023-04-23T09:42:34;4.97;;;2.83;;
76593;SDS011;65482;50.240;14.302;2023-04-23T09:45:05;3.47;;;2.70;;
76593;SDS011;65482;50.240;14.302;2023-04-23T09:47:38;7.45;;;2.97;;
76593;SDS011;65482;50.240;14.302;2023-04-23T09:50:15;6.10;;;2.55;;
76593;SDS011;65482;50.240;14.302;2023-04-23T09:52:41;6.55;;;2.80;;
76593;SDS011;65482;50.240;14.302;2023-04-23T09:55:08;3.38;;;2.40;;
76593;SDS011;65482;50.240;14.302;2023-04-23T09:57:37;2.95;;;2.40;;
76593;SDS011;65482;50.240;14.302;2023-04-23T10:00:16;4.03;;;2.42;;
76593;SDS011;65482;50.240;14.302;2023-04-23T10:02:47;2.33;;;2.00;;
76593;SDS011;65482;50.240;14.302;2023-04-23T10:05:16;4.43;;;2.00;;
76593;SDS011;65482;50.240;14.302;2023-04-23T10:07:43;2.50;;;2.30;;
76593;SDS011;65482;50.240;14.302;2023-04-23T10:10:17;2.35;;;1.98;;
76593;SDS011;65482;50.240;14.302;2023-04-23T10:12:44;2.28;;;2.05;;
76593;SDS011;65482;50.240;14.302;2023-04-23T10:15:11;2.75;;;2.25;;
76593;SDS011;65482;50.240;14.302;2023-04-23T10:17:41;3.83;;;2.05;;
76593;SDS011;65482;50.240;14.302;2023-04-23T10:20:11;2.95;;;2.20;;
76593;SDS011;65482;50.240;14.302;2023-04-23T10:22:37;3.50;;;2.40;;
76593;SDS011;65482;50.240;14.302;2023-04-23T10:25:09;4.05;;;2.15;;
76593;SDS011;65482;50.240;14.302;2023-04-23T10:27:43;2.80;;;2.15;;
76593;SDS011;65482;50.240;14.302;2023-04-23T10:30:12;4.20;;;2.58;;
76593;SDS011;65482;50.240;14.302;2023-04-23T10:32:40;3.97;;;2.55;;
76593;SDS011;65482;50.240;14.302;2023-04-23T10:35:07;3.47;;;2.20;;
76593;SDS011;65482;50.240;14.302;2023-04-23T10:37:35;3.97;;;2.08;;
76593;SDS011;65482;50.240;14.302;2023-04-23T10:40:07;4.93;;;2.20;;
76593;SDS011;65482;50.240;14.302;2023-04-23T10:42:40;3.95;;;2.28;;
76593;SDS011;65482;50.240;14.302;2023-04-23T10:45:29;3.78;;;2.20;;
76593;SDS011;65482;50.240;14.302;2023-04-23T10:47:57;4.05;;;2.47;;
76593;SDS011;65482;50.240;14.302;2023-04-23T10:50:27;2.75;;;2.20;;
76593;SDS011;65482;50.240;14.302;2023-04-23T10:52:55;3.47;;;2.22;;
76593;SDS011;65482;50.240;14.302;2023-04-23T10:55:22;4.00;;;2.35;;
76593;SDS011;65482;50.240;14.302;2023-04-23T10:58:03;2.88;;;2.35;;
76593;SDS011;65482;50.240;14.302;2023-04-23T11:00:43;2.22;;;1.92;;
76593;SDS011;65482;50.240;14.302;2023-04-23T11:06:01;4.28;;;2.00;;
76593;SDS011;65482;50.240;14.302;2023-04-23T11:08:30;3.08;;;2.28;;
76593;SDS011;65482;50.240;14.302;2023-04-23T11:10:57;3.30;;;2.08;;
76593;SDS011;65482;50.240;14.302;2023-04-23T11:13:26;3.10;;;2.05;;
76593;SDS011;65482;50.240;14.302;2023-04-23T11:16:12;4.78;;;3.00;;
76593;SDS011;65482;50.240;14.302;2023-04-23T11:24:34;5.45;;;3.22;;
76593;SDS011;65482;50.240;14.302;2023-04-23T11:27:06;4.68;;;2.50;;
76593;SDS011;65482;50.240;14.302;2023-04-23T11:29:37;5.25;;;2.33;;
76593;SDS011;65482;50.240;14.302;2023-04-23T11:32:07;4.50;;;2.58;;
76593;SDS011;65482;50.240;14.302;2023-04-23T11:34:44;4.07;;;2.28;;
76593;SDS011;65482;50.240;14.302;2023-04-23T11:37:12;4.95;;;2.22;;
76593;SDS011;65482;50.240;14.302;2023-04-23T11:39:40;3.97;;;2.88;;
76593;SDS011;65482;50.240;14.302;2023-04-23T11:42:14;3.55;;;2.20;;
76593;SDS011;65482;50.240;14.302;2023-04-23T11:44:42;3.40;;;2.40;;
76593;SDS011;65482;50.240;14.302;2023-04-23T11:47:10;2.63;;;2.10;;
76593;SDS011;65482;50.240;14.302;2023-04-23T11:49:45;3.40;;;2.30;;
76593;SDS011;65482;50.240;14.302;2023-04-23T11:52:15;4.05;;;2.35;;
76593;SDS011;65482;50.240;14.302;2023-04-23T11:55:01;3.60;;;2.40;;
76593;SDS011;65482;50.240;14.302;2023-04-23T11:57:28;4.30;;;2.28;;
76593;SDS011;65482;50.240;14.302;2023-04-23T11:59:54;3.30;;;2.78;;
76593;SDS011;65482;50.240;14.302;2023-04-23T12:02:22;4.47;;;2.67;;
76593;SDS011;65482;50.240;14.302;2023-04-23T12:04:49;4.38;;;3.30;;
76593;SDS011;65482;50.240;14.302;2023-04-23T12:07:15;4.93;;;3.50;;
76593;SDS011;65482;50.240;14.302;2023-04-23T12:09:40;5.25;;;3.70;;
76593;SDS011;65482;50.240;14.302;2023-04-23T12:12:06;3.22;;;2.58;;
76593;SDS011;65482;50.240;14.302;2023-04-23T12:14:32;3.03;;;2.03;;
76593;SDS011;65482;50.240;14.302;2023-04-23T12:17:07;3.72;;;2.22;;
76593;SDS011;65482;50.240;14.302;2023-04-23T12:19:34;3.95;;;2.20;;
76593;SDS011;65482;50.240;14.302;2023-04-23T12:22:02;3.85;;;2.33;;
76593;SDS011;65482;50.240;14.302;2023-04-23T12:24:29;2.42;;;2.08;;
76593;SDS011;65482;50.240;14.302;2023-04-23T12:27:12;3.83;;;2.28;;
76593;SDS011;65482;50.240;14.302;2023-04-23T12:29:39;3.72;;;2.40;;
76593;SDS011;65482;50.240;14.302;2023-04-23T12:32:09;3.13;;;2.33;;
76593;SDS011;65482;50.240;14.302;2023-04-23T12:34:35;4.03;;;2.35;;
76593;SDS011;65482;50.240;14.302;2023-04-23T12:37:04;3.38;;;2.03;;
76593;SDS011;65482;50.240;14.302;2023-04-23T12:39:31;3.00;;;2.10;;
76593;SDS011;65482;50.240;14.302;2023-04-23T12:44:29;2.63;;;2.22;;
76593;SDS011;65482;50.240;14.302;2023-04-23T12:47:00;4.45;;;2.17;;
76593;SDS011;65482;50.240;14.302;2023-04-23T12:49:29;2.10;;;1.90;;
76593;SDS011;65482;50.240;14.302;2023-04-23T12:51:55;2.50;;;2.00;;
76593;SDS011;65482;50.240;14.302;2023-04-23T12:54:29;3.42;;;1.85;;
76593;SDS011;65482;50.240;14.302;2023-04-23T12:56:56;2.50;;;1.90;;
76593;SDS011;65482;50.240;14.302;2023-04-23T12:59:25;3.35;;;1.70;;
76593;SDS011;65482;50.240;14.302;2023-04-23T13:01:51;2.85;;;1.77;;
76593;SDS011;65482;50.240;14.302;2023-04-23T13:04:22;3.30;;;2.22;;
76593;SDS011;65482;50.240;14.302;2023-04-23T13:06:49;4.07;;;1.90;;
76593;SDS011;65482;50.240;14.302;2023-04-23T13:09:15;3.03;;;1.92;;
76593;SDS011;65482;50.240;14.302;2023-04-23T13:11:41;2.90;;;1.80;;
76593;SDS011;65482;50.240;14.302;2023-04-23T13:14:07;4.00;;;2.00;;
76593;SDS011;65482;50.240;14.302;2023-04-23T13:16:33;4.03;;;2.08;;
76593;SDS011;65482;50.240;14.302;2023-04-23T13:18:59;2.63;;;1.80;;
76593;SDS011;65482;50.240;14.302;2023-04-23T13:21:26;2.83;;;2.10;;
76593;SDS011;65482;50.240;14.302;2023-04-23T13:23:51;2.40;;;2.08;;
76593;SDS011;65482;50.240;14.302;2023-04-23T13:26:17;2.35;;;1.75;;
76593;SDS011;65482;50.240;14.302;2023-04-23T13:28:43;2.00;;;1.90;;
76593;SDS011;65482;50.240;14.302;2023-04-23T13:31:09;3.30;;;2.58;;
76593;SDS011;65482;50.240;14.302;2023-04-23T13:33:37;2.72;;;2.00;;
76593;SDS011;65482;50.240;14.302;2023-04-23T13:36:03;2.90;;;1.70;;
76593;SDS011;65482;50.240;14.302;2023-04-23T13:38:29;2.20;;;1.50;;
76593;SDS011;65482;50.240;14.302;2023-04-23T13:40:55;3.45;;;1.90;;
76593;SDS011;65482;50.240;14.302;2023-04-23T13:43:21;1.90;;;1.48;;
76593;SDS011;65482;50.240;14.302;2023-04-23T13:45:47;2.95;;;1.67;;
76593;SDS011;65482;50.240;14.302;2023-04-23T13:48:13;3.17;;;2.22;;
76593;SDS011;65482;50.240;14.302;2023-04-23T13:50:39;2.67;;;2.13;;
76593;SDS011;65482;50.240;14.302;2023-04-23T13:53:07;2.70;;;2.08;;
76593;SDS011;65482;50.240;14.302;2023-04-23T13:55:33;3.08;;;2.28;;
76593;SDS011;65482;50.240;14.302;2023-04-23T13:57:59;3.63;;;2.22;;
76593;SDS011;65482;50.240;14.302;2023-04-23T14:00:25;3.03;;;2.50;;
76593;SDS011;65482;50.240;14.302;2023-04-23T14:02:52;4.68;;;2.63;;
76593;SDS011;65482;50.240;14.302;2023-04-23T14:05:18;4.18;;;2.70;;
76593;SDS011;65482;50.240;14.302;2023-04-23T14:07:43;3.72;;;3.03;;
76593;SDS011;65482;50.240;14.302;2023-04-23T14:10:10;4.90;;;3.17;;
76593;SDS011;65482;50.240;14.302;2023-04-23T14:12:36;3.10;;;2.20;;
76593;SDS011;65482;50.240;14.302;2023-04-23T14:15:09;4.80;;;2.67;;
76593;SDS011;65482;50.240;14.302;2023-04-23T14:17:37;4.10;;;2.25;;
76593;SDS011;65482;50.240;14.302;2023-04-23T14:20:05;3.65;;;1.77;;
76593;SDS011;65482;50.240;14.302;2023-04-23T14:22:31;3.55;;;2.30;;
76593;SDS011;65482;50.240;14.302;2023-04-23T14:25:01;3.72;;;2.40;;
76593;SDS011;65482;50.240;14.302;2023-04-23T14:27:43;4.45;;;2.67;;
76593;SDS011;65482;50.240;14.302;2023-04-23T14:30:19;4.07;;;2.50;;